ADDS METAR Data INFO
IDs: Format: Raw Decoded Include TAF

Data at: 2018 UTC 18 Jul 2018

KRDU 181951Z VRB05KT 10SM SCT060 BKN250 31/14 A2995 RMK AO2 SLP138 T03110144
KRDU 181851Z 04006KT 10SM FEW050 BKN060 BKN250 30/15 A2997 RMK AO2 SLP142 T03000150
KRDU 181751Z 08007KT 10SM FEW050 SCT060 BKN250 29/15 A2997 RMK AO2 SLP144 T02940150 10300 20228 58007
KRDU 181651Z 07010G15KT 10SM FEW045 BKN060 BKN250 29/15 A2998 RMK AO2 SLP148 T02890150
KRDU 181551Z 03010G14KT 10SM FEW045 SCT060 BKN250 28/16 A3000 RMK AO2 SLP153 T02780161
KRDU 181451Z 05011KT 10SM FEW035 BKN055 BKN150 BKN250 26/17 A3000 RMK AO2 SLP153 T02610167 51013
KRDU 181351Z 04009KT 10SM FEW020 BKN047 BKN150 OVC250 26/20 A2999 RMK AO2 SLP151 T02560200
KRDU 181251Z 04010KT 10SM SCT100 BKN250 24/21 A2998 RMK AO2 SLP147 T02440206
KRDU 181151Z 03005KT 10SM FEW008 FEW090 BKN250 23/21 A2996 RMK AO2 SLP140 70010 T02280211 10233 20222 53026
KRDU 181051Z 02003KT 10SM FEW004 FEW070 FEW120 BKN250 22/22 A2994 RMK AO2 SLP131 T02220217
KRDU 181019Z 03005KT 8SM SCT005 SCT120 BKN250 22/22 A2992 RMK AO2 T02220217
KRDU 180951Z 02004KT 5SM BR BKN004 BKN120 BKN250 22/22 A2990 RMK AO2 SLP120 T02220222
KRDU 180851Z 00000KT 8SM FEW005 FEW012 FEW110 BKN250 23/22 A2988 RMK AO2 SLP113 T02280222 58005
KRDU 180751Z 00000KT 10SM FEW055 SCT140 BKN250 23/23 A2989 RMK AO2 SLP114 T02330228
KRDU 180651Z 00000KT 10SM FEW045 BKN140 BKN250 23/23 A2990 RMK AO2 SLP119 T02330228
KRDU 180551Z 00000KT 10SM FEW045 BKN140 BKN250 23/23 A2990 RMK AO2 SLP117 60010 T02330228 10272 20222 56010
KRDU 180451Z 00000KT 10SM FEW060 FEW075 SCT120 BKN250 23/22 A2990 RMK AO2 SLP121 T02280222 403670222
KRDU 180351Z 15004KT 10SM FEW050 FEW085 FEW100 BKN250 23/23 A2991 RMK AO2 SLP123 T02330228
KRDU 180251Z 19006KT 10SM SCT048 BKN110 BKN250 24/23 A2993 RMK AO2 RAB32E43 TSB00E32 SLP128 OCNL LTG DSNT NE-E P0000 60010 T02390228 53009
KRDU 180233Z 17007KT 10SM RA SCT050 BKN110 OVC250 24/22 A2993 RMK AO2 RAB32 TSB00E32 OCNL LTG DSNT E-S P0000 T02390222
KRDU 180201Z 17005KT 10SM TS SCT050CB BKN110 OVC250 24/23 A2991 RMK AO2 TSB00 OCNL LTGICCG OHD-SE TS OHD-SE MOV SE T02390233
KRDU 180151Z 13009KT 10SM SCT050 BKN110 OVC250 24/23 A2991 RMK AO2 SLP121 FRQ LTG DSNT E-SW T02390233
KRDU 180051Z 20008KT 10SM SCT045 BKN100 BKN250 25/24 A2990 RMK AO2 RAB2352E41 TSB2359E48 SLP118 FRQ LTG DSNT E-SW P0010 T02500239
KRDU 180038Z 19006KT 10SM -TSRA SCT050CB BKN100 OVC250 25/24 A2990 RMK AO2 RAB2352 TSB2359 FRQ LTGICCG SE-SW TS SE-SW MOV E P0010 T02500239
KRDU 180011Z 00000KT 1 3/4SM R23R/5500VP6000FT TSRA BR SCT050CB BKN100 OVC250 24/23 A2990 RMK AO2 RAB2352 TSB2359 FRQ LTGICCG S-SW TS S-SW MOV S P0004 T02440233
KRDU 180003Z 28003KT 4SM -TSRA BR SCT050CB BKN100 OVC250 25/23 A2990 RMK AO2 RAB2352 TSB2359 FRQ LTGICCG S-SW TS S-SW MOV S P0001 T02500228
KRDU 172351Z 26005KT 10SM SCT050 BKN100 OVC250 27/21 A2990 RMK AO2 SLP118 FRQ LTG DSNT SE-W T02720211 10367 20272 53012
KRDU 172251Z 26004KT 10SM SCT045 SCT100 BKN250 29/22 A2986 RMK AO2 SLP106 FRQ LTG DSNT SE-S AND W-N T02940217
KRDU 172151Z 25003KT 10SM FEW050 SCT100 BKN250 32/22 A2984 RMK AO2 SLP100 TCU DSNT SE CB DSNT NW T03170222
KRDU 172051Z 29008KT 10SM SCT050 SCT100 BKN250 31/22 A2986 RMK AO2 SLP106 OCNL LTG DSNT N T03060217 56015
KRDU 171951Z 23009G20KT 10SM SCT047 BKN250 36/21 A2987 RMK AO2 SLP109 FRQ LTG DSNT W-NW T03610211
KRDU 171851Z 25011KT 10SM SCT036 BKN250 36/22 A2989 RMK AO2 SLP115 CB DSNT N-NE T03560217
KRDU 171751Z 24012KT 10SM SCT032 SCT250 34/22 A2991 RMK AO2 SLP122 CB DSNT N-NE T03390222 10339 20250 58023
KRDU 171651Z 24012KT 10SM SCT028 SCT250 32/23 A2995 RMK AO2 SLP135 TCU DSNT NW-N T03220228
KRDU 171617Z 23008G17KT 10SM SCT028 SCT250 32/23 A2996 RMK AO2 T03220228
KRDU 171551Z 24012G15KT 10SM BKN022 BKN250 31/23 A2997 RMK AO2 SLP142 T03110233
KRDU 171451Z 24012KT 10SM BKN020 BKN150 BKN250 29/23 A2998 RMK AO2 SLP146 T02940228 50000
KRDU 171351Z 22009KT 10SM BKN016 BKN150 BKN250 28/23 A2998 RMK AO2 SLP148 T02830233
KRDU 171328Z 24008KT 10SM BKN015 BKN150 BKN250 28/23 A2999 RMK AO2 T02780228
KRDU 171251Z 24008KT 10SM SCT013 BKN150 BKN250 27/23 A2998 RMK AO2 SLP147 T02670228
KRDU 171151Z 22009KT 10SM FEW018 FEW110 SCT250 25/22 A2998 RMK AO2 SLP146 T02500222 10250 20222 53003
KRDU 171051Z 22006KT 8SM FEW110 SCT250 23/22 A2997 RMK AO2 SLP144 T02280217
KRDU 170951Z 24004KT 10SM FEW110 FEW250 22/21 A2997 RMK AO2 SLP142 T02220211
KRDU 170851Z 21007KT 10SM FEW110 FEW250 23/21 A2997 RMK AO2 SLP142 T02330211 58013